Time;durP1;ratioP1;P1;durP2;ratioP2;P2;SDS_P1;SDS_P2;PMS_P1;PMS_P2;Temp;Humidity;BMP_temperature;BMP_pressure;BME280_temperature;BME280_humidity;BME280_pressure;Samples;Min_cycle;Max_cycle;Signal;HPM_P1;HPM_P2
2022/07/28 00:00:18;;;;;;;4.20;1.20;;;16.50;99.90;;;;;;5113977;28;20467;-48
2022/07/28 00:02:46;;;;;;;2.13;1.43;;;16.50;99.90;;;;;;5117005;28;20505;-50
2022/07/28 00:05:13;;;;;;;3.43;1.23;;;16.50;99.90;;;;;;5103104;28;20485;-53
2022/07/28 00:07:40;;;;;;;2.90;1.63;;;16.40;99.90;;;;;;5113665;28;20457;-49
2022/07/28 00:10:08;;;;;;;3.13;1.70;;;16.40;99.90;;;;;;5117067;28;20501;-48
2022/07/28 00:12:36;;;;;;;3.53;2.00;;;16.40;99.90;;;;;;5117491;28;20461;-49
2022/07/28 00:15:03;;;;;;;3.10;1.53;;;16.30;99.90;;;;;;5116424;28;20454;-50
2022/07/28 00:17:30;;;;;;;5.07;2.03;;;16.30;99.90;;;;;;5116586;28;20482;-50
2022/07/28 00:19:59;;;;;;;2.70;1.50;;;16.30;99.90;;;;;;5116391;28;20458;-48
2022/07/28 00:22:26;;;;;;;3.33;1.63;;;16.20;99.90;;;;;;5116381;28;20461;-47
2022/07/28 00:24:52;;;;;;;2.50;1.37;;;16.20;99.90;;;;;;5116467;28;20536;-51
2022/07/28 00:27:19;;;;;;;3.60;1.70;;;16.10;99.90;;;;;;5116690;28;20437;-47
2022/07/28 00:29:46;;;;;;;9.07;1.77;;;16.10;99.90;;;;;;5100027;28;20548;-45
2022/07/28 00:32:13;;;;;;;2.10;1.23;;;16.10;99.90;;;;;;5115974;28;20464;-49
2022/07/28 00:34:40;;;;;;;5.53;1.70;;;16.10;99.90;;;;;;5116560;28;20464;-48
2022/07/28 00:37:08;;;;;;;2.30;1.57;;;16.10;99.90;;;;;;5116178;28;20465;-49
2022/07/28 00:39:35;;;;;;;5.40;2.00;;;16.10;99.90;;;;;;5116249;28;20460;-47
2022/07/28 00:42:01;;;;;;;4.57;2.07;;;16.00;99.90;;;;;;5115862;28;20513;-53
2022/07/28 00:44:28;;;;;;;4.17;1.73;;;16.00;99.90;;;;;;5099824;28;20549;-49
2022/07/28 00:46:55;;;;;;;5.83;2.33;;;15.90;99.90;;;;;;5116783;28;20497;-47
2022/07/28 00:49:23;;;;;;;2.70;1.40;;;16.00;99.90;;;;;;5115493;28;20529;-55
2022/07/28 00:51:52;;;;;;;5.97;1.47;;;16.00;99.90;;;;;;5116075;28;20430;-50
2022/07/28 00:54:21;;;;;;;3.57;1.67;;;16.00;99.90;;;;;;5115711;28;20464;-46
2022/07/28 00:56:47;;;;;;;3.70;1.70;;;15.90;99.90;;;;;;5116082;28;20457;-51
2022/07/28 00:59:14;;;;;;;2.60;2.03;;;15.90;99.90;;;;;;5116248;28;20450;-47
2022/07/28 01:01:41;;;;;;;5.23;1.80;;;15.90;99.90;;;;;;5116659;28;20429;-48
2022/07/28 01:04:08;;;;;;;3.43;1.27;;;15.90;99.90;;;;;;5116519;28;20517;-47
2022/07/28 01:06:54;;;;;;;2.60;1.30;;;15.80;99.90;;;;;;5115439;28;20517;-49
2022/07/28 01:09:38;;;;;;;4.80;1.73;;;15.80;99.90;;;;;;5115941;28;20537;-46
2022/07/28 01:12:14;;;;;;;3.77;1.37;;;15.80;99.90;;;;;;5116744;28;20426;-47
2022/07/28 01:14:48;;;;;;;2.83;1.43;;;15.80;99.90;;;;;;5115961;28;20449;-47
2022/07/28 01:17:25;;;;;;;2.87;1.97;;;15.80;99.90;;;;;;5111204;28;20456;-55
2022/07/28 01:20:06;;;;;;;3.37;1.40;;;15.80;99.90;;;;;;5106435;28;20465;-48
2022/07/28 01:22:38;;;;;;;3.20;1.80;;;15.80;99.90;;;;;;5115839;28;20513;-53
2022/07/28 01:25:20;;;;;;;5.13;1.63;;;15.80;99.90;;;;;;5115386;28;20485;-50
2022/07/28 01:28:13;;;;;;;4.07;1.50;;;15.70;99.90;;;;;;5115960;28;20414;-49
2022/07/28 01:30:46;;;;;;;3.97;1.43;;;15.70;99.90;;;;;;5116165;28;20465;-51
2022/07/28 01:33:16;;;;;;;4.40;2.30;;;15.70;99.90;;;;;;5116302;28;20497;-47
2022/07/28 01:35:47;;;;;;;1.67;1.43;;;15.70;99.90;;;;;;5100994;28;20461;-52
2022/07/28 01:38:17;;;;;;;13.63;1.97;;;15.70;99.90;;;;;;5114860;28;20509;-47
2022/07/28 01:40:46;;;;;;;3.00;1.80;;;15.60;99.90;;;;;;5116031;28;20460;-52
2022/07/28 01:43:24;;;;;;;6.53;1.73;;;15.60;99.90;;;;;;5115996;28;20437;-50
2022/07/28 01:45:54;;;;;;;3.87;2.03;;;15.60;99.90;;;;;;5115782;28;20561;-48
2022/07/28 01:48:25;;;;;;;4.20;2.00;;;15.60;99.90;;;;;;5115761;28;20437;-52
2022/07/28 01:50:54;;;;;;;3.90;2.00;;;15.60;99.90;;;;;;5115792;28;20465;-49
2022/07/28 01:53:22;;;;;;;3.43;1.70;;;15.60;99.90;;;;;;5115948;28;20505;-50
2022/07/28 01:55:50;;;;;;;3.27;1.93;;;15.60;99.90;;;;;;5115772;28;20454;-53
2022/07/28 01:58:20;;;;;;;6.20;1.77;;;15.50;99.90;;;;;;5116249;28;20465;-46
2022/07/28 02:00:49;;;;;;;3.13;1.50;;;15.50;99.90;;;;;;5116032;28;20461;-54
2022/07/28 02:03:19;;;;;;;3.90;1.87;;;15.50;99.90;;;;;;5115761;28;20456;-52
2022/07/28 02:05:50;;;;;;;3.17;2.23;;;15.50;99.90;;;;;;5115712;28;20477;-49
2022/07/28 02:08:22;;;;;;;3.23;1.77;;;15.50;99.90;;;;;;5116135;28;20412;-49
2022/07/28 02:13:33;;;;;;;4.77;2.27;;;15.40;99.90;;;;;;5115105;28;20425;-48
2022/07/28 02:16:02;;;;;;;4.27;1.70;;;15.40;99.90;;;;;;5115924;28;20493;-52
2022/07/28 02:18:32;;;;;;;3.83;1.90;;;15.40;99.90;;;;;;5101724;28;20501;-50
2022/07/28 02:21:00;;;;;;;2.73;1.73;;;15.40;99.90;;;;;;5119059;28;20476;-47
2022/07/28 02:23:28;;;;;;;6.70;2.20;;;15.40;99.90;;;;;;5113912;28;20451;-50
2022/07/28 02:25:58;;;;;;;3.07;1.97;;;15.30;99.90;;;;;;5107719;28;20481;-44
2022/07/28 02:28:27;;;;;;;4.63;1.87;;;15.30;99.90;;;;;;5119154;28;20858;-50
2022/07/28 02:33:27;;;;;;;6.20;2.10;;;15.30;99.90;;;;;;5040566;28;20574;-56
2022/07/28 02:36:00;;;;;;;4.50;2.70;;;15.20;99.90;;;;;;5033643;28;20461;-53
2022/07/28 02:38:30;;;;;;;2.50;1.77;;;15.20;99.90;;;;;;5034019;28;20434;-57
2022/07/28 02:41:04;;;;;;;6.30;1.87;;;15.20;99.90;;;;;;5033894;28;20529;-57
2022/07/28 02:43:35;;;;;;;6.67;2.00;;;15.20;99.90;;;;;;5033315;28;20417;-58
2022/07/28 02:46:08;;;;;;;8.87;2.50;;;15.10;99.90;;;;;;5032748;28;20544;-55
2022/07/28 02:48:39;;;;;;;4.50;1.63;;;15.10;99.90;;;;;;5033226;28;20436;-57
2022/07/28 02:51:09;;;;;;;7.53;2.10;;;15.10;99.90;;;;;;5033128;28;20473;-61
2022/07/28 02:53:38;;;;;;;2.10;1.37;;;15.10;99.90;;;;;;5033425;28;20885;-57
2022/07/28 02:56:05;;;;;;;2.97;2.17;;;15.00;99.90;;;;;;5033322;28;20481;-57
2022/07/28 02:58:33;;;;;;;4.90;1.80;;;15.00;99.90;;;;;;5033825;28;20482;-52
2022/07/28 03:01:01;;;;;;;3.10;1.50;;;15.00;99.90;;;;;;5033853;28;20534;-58
2022/07/28 03:03:30;;;;;;;2.80;1.80;;;15.00;99.90;;;;;;5034072;28;20433;-56
2022/07/28 03:05:57;;;;;;;3.23;2.10;;;15.00;99.90;;;;;;5033948;28;20560;-57
2022/07/28 03:08:25;;;;;;;3.40;1.60;;;15.00;99.90;;;;;;5033662;28;20810;-58
2022/07/28 03:11:06;;;;;;;3.90;1.93;;;15.00;99.90;;;;;;5033674;28;20425;-58
2022/07/28 03:13:33;;;;;;;6.83;3.10;;;15.00;99.90;;;;;;5033690;28;20475;-54
2022/07/28 03:16:00;;;;;;;3.40;2.03;;;15.10;99.90;;;;;;5033509;28;20454;-50
2022/07/28 03:18:27;;;;;;;6.47;2.10;;;15.10;99.90;;;;;;5033464;28;20426;-56
2022/07/28 03:20:56;;;;;;;4.83;3.53;;;15.10;99.90;;;;;;5033235;28;20433;-58
2022/07/28 03:23:29;;;;;;;6.00;2.10;;;15.00;99.90;;;;;;5032799;28;20459;-56
2022/07/28 03:26:02;;;;;;;3.23;2.37;;;15.00;99.90;;;;;;5032882;28;20465;-56
2022/07/28 03:28:29;;;;;;;5.10;2.43;;;15.00;99.90;;;;;;5032135;28;20459;-54
2022/07/28 03:31:00;;;;;;;5.77;1.93;;;15.00;99.90;;;;;;5032524;28;20521;-55
2022/07/28 03:33:27;;;;;;;6.83;2.83;;;15.00;99.90;;;;;;5032355;28;20480;-58
2022/07/28 03:35:58;;;;;;;2.40;1.90;;;15.00;99.90;;;;;;5032350;28;20453;-52
2022/07/28 03:38:29;;;;;;;7.40;3.40;;;15.00;99.90;;;;;;5033183;28;20437;-52
2022/07/28 03:40:57;;;;;;;5.70;2.17;;;15.00;99.90;;;;;;5032719;28;20440;-53
2022/07/28 03:43:26;;;;;;;4.50;1.73;;;15.00;99.90;;;;;;5032513;28;20449;-59
2022/07/28 03:45:52;;;;;;;3.50;1.90;;;15.00;99.90;;;;;;5032677;28;20484;-58
2022/07/28 03:48:22;;;;;;;7.37;1.77;;;14.90;99.90;;;;;;5032991;28;20480;-57
2022/07/28 03:50:48;;;;;;;4.30;2.10;;;14.90;99.90;;;;;;5033110;28;20508;-54
2022/07/28 03:53:21;;;;;;;2.20;1.57;;;14.90;99.90;;;;;;5032133;28;20495;-60
2022/07/28 03:55:50;;;;;;;3.03;1.80;;;14.90;99.90;;;;;;5032805;28;20441;-61
2022/07/28 03:58:17;;;;;;;5.10;1.93;;;14.90;99.90;;;;;;5031950;28;20469;-60
2022/07/28 04:00:44;;;;;;;5.40;2.10;;;15.00;99.90;;;;;;5031960;28;20433;-55
2022/07/28 04:03:10;;;;;;;12.30;2.47;;;14.90;99.90;;;;;;5033275;28;20533;-61
2022/07/28 04:05:38;;;;;;;5.00;2.10;;;14.90;99.90;;;;;;5033307;28;20504;-56
2022/07/28 04:08:05;;;;;;;4.73;2.90;;;14.90;99.90;;;;;;5033246;28;20517;-61
2022/07/28 04:10:32;;;;;;;4.30;2.17;;;15.00;99.90;;;;;;5033075;28;20501;-58
2022/07/28 04:13:01;;;;;;;5.43;2.57;;;15.00;99.90;;;;;;5032671;28;20475;-57
2022/07/28 04:15:29;;;;;;;6.03;2.27;;;15.00;99.90;;;;;;5033049;28;20501;-56
2022/07/28 04:17:57;;;;;;;4.57;2.60;;;15.00;99.90;;;;;;5033345;28;20477;-58
2022/07/28 04:20:25;;;;;;;5.27;2.70;;;15.00;99.90;;;;;;5032817;28;20454;-57
2022/07/28 04:22:53;;;;;;;6.47;1.90;;;15.00;99.90;;;;;;5032963;28;20454;-58
2022/07/28 04:25:22;;;;;;;3.50;2.17;;;15.00;99.90;;;;;;5033014;28;20477;-57
2022/07/28 04:27:49;;;;;;;3.17;2.10;;;15.00;99.90;;;;;;5032258;28;20492;-56
2022/07/28 04:30:20;;;;;;;6.13;1.93;;;15.00;99.90;;;;;;5032642;28;20520;-53
2022/07/28 04:32:49;;;;;;;4.40;1.97;;;15.00;99.90;;;;;;5032943;28;20512;-56
2022/07/28 04:35:17;;;;;;;4.13;2.47;;;15.00;99.90;;;;;;5032320;28;20456;-54
2022/07/28 04:37:44;;;;;;;7.93;2.00;;;15.00;99.90;;;;;;5032604;28;20578;-64
2022/07/28 04:40:12;;;;;;;7.00;2.63;;;15.00;99.90;;;;;;5032673;28;20445;-58
2022/07/28 04:42:40;;;;;;;3.97;2.13;;;15.10;99.90;;;;;;5032246;28;20497;-61
2022/07/28 04:45:08;;;;;;;6.07;2.40;;;15.10;99.90;;;;;;5032885;28;22428;-64
2022/07/28 04:47:37;;;;;;;6.13;2.50;;;15.10;99.90;;;;;;5032098;28;20536;-56
2022/07/28 04:50:05;;;;;;;2.53;2.33;;;15.10;99.90;;;;;;5032231;28;20540;-56
2022/07/28 04:52:32;;;;;;;7.50;2.90;;;15.20;99.90;;;;;;5032698;28;20536;-59
2022/07/28 04:54:59;;;;;;;7.57;2.60;;;15.20;99.90;;;;;;5032877;28;20444;-63
2022/07/28 04:57:27;;;;;;;6.70;2.80;;;15.30;99.90;;;;;;5032278;28;20497;-58
2022/07/28 04:59:56;;;;;;;3.77;2.57;;;15.30;99.90;;;;;;5032079;28;20532;-57
2022/07/28 05:02:22;;;;;;;5.60;2.87;;;15.40;99.90;;;;;;5031569;28;20489;-52
2022/07/28 05:04:51;;;;;;;24.00;4.03;;;15.50;99.90;;;;;;5032389;28;20426;-52
2022/07/28 05:07:20;;;;;;;10.53;2.70;;;15.50;99.90;;;;;;5031952;28;20545;-52
2022/07/28 05:09:46;;;;;;;4.50;3.03;;;15.60;99.90;;;;;;5032032;28;20429;-57
2022/07/28 05:12:13;;;;;;;6.37;2.90;;;15.60;99.90;;;;;;5031822;28;20477;-58
2022/07/28 05:14:40;;;;;;;4.97;2.40;;;15.70;99.90;;;;;;5031748;28;20438;-58
2022/07/28 05:17:07;;;;;;;6.10;2.90;;;15.70;99.90;;;;;;5031441;28;20437;-57
2022/07/28 05:19:34;;;;;;;2.37;1.83;;;15.80;99.90;;;;;;5031081;28;20449;-63
2022/07/28 05:22:02;;;;;;;5.33;2.50;;;15.90;99.90;;;;;;5031384;28;20476;-51
2022/07/28 05:24:29;;;;;;;4.90;1.90;;;15.90;99.90;;;;;;5031389;28;20548;-54
2022/07/28 05:26:55;;;;;;;6.27;2.50;;;16.00;99.90;;;;;;5031152;28;20483;-58
2022/07/28 05:29:22;;;;;;;4.53;2.47;;;16.10;99.90;;;;;;5031164;28;20501;-57
2022/07/28 05:31:49;;;;;;;4.73;2.40;;;16.10;99.90;;;;;;5031025;28;20528;-54
2022/07/28 05:34:16;;;;;;;9.50;2.40;;;16.20;99.90;;;;;;5030939;28;20468;-57
2022/07/28 05:36:43;;;;;;;3.50;2.10;;;16.20;99.90;;;;;;5031292;28;20448;-52
2022/07/28 05:39:11;;;;;;;4.67;2.17;;;16.30;99.90;;;;;;5030812;28;20481;-57
2022/07/28 05:41:38;;;;;;;5.13;2.00;;;16.30;99.90;;;;;;5030729;28;20451;-56
2022/07/28 05:44:05;;;;;;;8.83;2.00;;;16.40;99.90;;;;;;5031357;28;20473;-56
2022/07/28 05:46:31;;;;;;;4.00;1.90;;;16.50;99.90;;;;;;5030757;28;20473;-56
2022/07/28 05:48:58;;;;;;;4.90;1.70;;;16.50;99.90;;;;;;5030888;28;20507;-55
2022/07/28 05:51:25;;;;;;;4.30;1.80;;;16.60;99.90;;;;;;5031874;28;20504;-56
2022/07/28 05:53:52;;;;;;;7.97;1.97;;;16.70;99.90;;;;;;5034331;28;20465;-50
2022/07/28 05:56:21;;;;;;;4.13;2.13;;;16.70;99.90;;;;;;5035037;28;20461;-53
2022/07/28 05:58:48;;;;;;;3.90;2.10;;;16.80;99.90;;;;;;5034584;28;20480;-59
2022/07/28 06:01:15;;;;;;;6.50;2.17;;;16.80;99.90;;;;;;5035132;28;20445;-56
2022/07/28 06:03:42;;;;;;;4.57;3.80;;;16.90;99.90;;;;;;5034461;28;20467;-57
2022/07/28 06:06:09;;;;;;;2.83;2.00;;;16.90;99.90;;;;;;5034531;28;20465;-56
2022/07/28 06:08:36;;;;;;;3.70;1.70;;;17.00;99.90;;;;;;5033869;28;20493;-53
2022/07/28 06:11:08;;;;;;;3.03;2.20;;;17.10;99.90;;;;;;5034962;28;20494;-57
2022/07/28 06:13:36;;;;;;;5.80;2.40;;;17.10;99.90;;;;;;5034045;28;20455;-60
2022/07/28 06:16:03;;;;;;;4.07;1.70;;;17.20;99.90;;;;;;5034370;28;20426;-57
2022/07/28 06:18:30;;;;;;;10.07;2.10;;;17.20;99.90;;;;;;5020654;28;20448;-53
2022/07/28 06:20:57;;;;;;;3.33;1.93;;;17.30;99.90;;;;;;5034468;28;20453;-57
2022/07/28 06:23:24;;;;;;;9.60;2.70;;;17.30;99.90;;;;;;5033648;28;20501;-57
2022/07/28 06:25:51;;;;;;;4.57;2.80;;;17.40;99.90;;;;;;5033876;28;20491;-51
2022/07/28 06:28:19;;;;;;;6.10;2.03;;;17.60;99.90;;;;;;5034102;28;20445;-58
2022/07/28 06:30:47;;;;;;;7.60;2.43;;;17.60;99.90;;;;;;5034221;28;20466;-52
2022/07/28 06:33:14;;;;;;;6.10;2.20;;;17.70;99.90;;;;;;5033971;28;20513;-58
2022/07/28 06:35:41;;;;;;;4.70;3.07;;;17.80;99.90;;;;;;5034852;28;20484;-57
2022/07/28 06:38:08;;;;;;;7.53;2.27;;;17.80;99.90;;;;;;5034628;28;20511;-57
2022/07/28 06:40:35;;;;;;;6.63;2.83;;;17.80;99.90;;;;;;5034205;28;20452;-56
2022/07/28 06:43:02;;;;;;;6.30;2.80;;;17.90;99.90;;;;;;5034436;28;20441;-54
2022/07/28 06:45:29;;;;;;;6.43;2.40;;;18.10;99.90;;;;;;5034536;28;20541;-58
2022/07/28 06:47:57;;;;;;;5.40;2.50;;;18.20;99.90;;;;;;5034811;28;20470;-54
2022/07/28 06:50:24;;;;;;;4.00;2.03;;;18.30;99.90;;;;;;5033977;28;20574;-62
2022/07/28 06:52:51;;;;;;;3.73;2.00;;;18.40;99.90;;;;;;5034406;28;20433;-55
2022/07/28 06:55:17;;;;;;;3.00;1.57;;;18.50;99.90;;;;;;5033935;28;20473;-59
2022/07/28 06:57:44;;;;;;;4.50;2.03;;;18.60;99.90;;;;;;5033794;28;20430;-57
2022/07/28 07:00:13;;;;;;;4.90;2.63;;;18.70;99.90;;;;;;5033688;28;20473;-54
2022/07/28 07:02:40;;;;;;;2.60;1.80;;;18.80;99.90;;;;;;5033902;28;20825;-54
2022/07/28 07:05:10;;;;;;;5.50;2.00;;;18.80;99.90;;;;;;5034143;28;20488;-50
2022/07/28 07:07:37;;;;;;;4.07;1.80;;;18.80;99.90;;;;;;5034076;28;20461;-53
2022/07/28 07:10:04;;;;;;;1.87;1.63;;;18.90;99.90;;;;;;5034087;28;20473;-58
2022/07/28 07:12:33;;;;;;;4.70;1.90;;;18.90;99.90;;;;;;5020340;28;20449;-55
2022/07/28 07:14:59;;;;;;;9.40;2.10;;;19.10;99.90;;;;;;5028035;28;20465;-57
2022/07/28 07:17:28;;;;;;;6.17;2.00;;;19.20;99.90;;;;;;5027876;28;20441;-57
2022/07/28 07:19:55;;;;;;;4.50;2.10;;;19.30;99.90;;;;;;5034152;28;20492;-56
2022/07/28 07:22:23;;;;;;;7.90;2.87;;;19.50;99.90;;;;;;5033905;28;20468;-55
2022/07/28 07:24:50;;;;;;;4.73;1.93;;;19.80;99.90;;;;;;5033858;28;20477;-55
2022/07/28 07:27:17;;;;;;;3.90;1.70;;;20.50;99.90;;;;;;5033986;28;20474;-55
2022/07/28 07:29:43;;;;;;;7.87;2.07;;;21.40;99.90;;;;;;5033963;28;20426;-56
2022/07/28 07:32:10;;;;;;;5.67;1.70;;;22.30;99.90;;;;;;5033699;28;20864;-52
2022/07/28 07:34:39;;;;;;;5.10;2.40;;;23.10;99.90;;;;;;5033498;28;20450;-58
2022/07/28 07:37:06;;;;;;;7.20;2.17;;;23.90;99.80;;;;;;5034021;28;20432;-58
2022/07/28 07:39:34;;;;;;;3.73;2.40;;;24.70;96.70;;;;;;5033310;28;20449;-55
2022/07/28 07:42:01;;;;;;;5.50;2.70;;;25.00;93.20;;;;;;5033385;28;20497;-58
2022/07/28 07:44:28;;;;;;;6.97;2.10;;;25.10;92.00;;;;;;5033503;28;20469;-55
2022/07/28 07:46:55;;;;;;;3.67;2.10;;;25.00;90.90;;;;;;5033511;28;20619;-55
2022/07/28 07:49:23;;;;;;;3.90;2.17;;;24.90;89.80;;;;;;5034111;28;20458;-56
2022/07/28 07:51:50;;;;;;;10.20;2.80;;;24.90;90.30;;;;;;5032890;28;20504;-58
2022/07/28 07:54:17;;;;;;;6.00;3.20;;;25.30;88.20;;;;;;5033952;28;20452;-55
2022/07/28 07:56:45;;;;;;;4.93;2.20;;;25.90;83.70;;;;;;5033623;28;20435;-56
2022/07/28 07:59:12;;;;;;;3.03;2.23;;;26.60;82.10;;;;;;5033763;28;20585;-57
2022/07/28 08:01:38;;;;;;;3.03;1.50;;;27.20;78.30;;;;;;5033736;28;20445;-60
2022/07/28 08:04:06;;;;;;;2.40;1.70;;;27.90;74.70;;;;;;5033768;28;20465;-57
2022/07/28 08:06:32;;;;;;;3.60;1.80;;;28.40;71.40;;;;;;5033409;28;20537;-59
2022/07/28 08:08:59;;;;;;;5.10;2.40;;;28.90;66.60;;;;;;5033404;28;20513;-60
2022/07/28 08:11:26;;;;;;;4.37;1.70;;;28.90;64.40;;;;;;5033318;28;20471;-58
2022/07/28 08:13:54;;;;;;;7.40;2.10;;;28.90;62.40;;;;;;5032457;28;20452;-57
2022/07/28 08:16:21;;;;;;;4.37;2.00;;;28.80;62.30;;;;;;5033401;28;20475;-55
2022/07/28 08:18:48;;;;;;;4.07;1.70;;;28.60;61.50;;;;;;5033244;28;20473;-54
2022/07/28 08:21:15;;;;;;;4.27;2.13;;;28.00;62.40;;;;;;5033411;28;20473;-55
2022/07/28 08:23:41;;;;;;;5.93;2.03;;;27.60;63.90;;;;;;5033407;28;20441;-54
2022/07/28 08:26:08;;;;;;;3.20;1.80;;;27.50;63.70;;;;;;5033011;28;20461;-57
2022/07/28 08:28:35;;;;;;;7.60;1.97;;;27.50;64.30;;;;;;5033208;28;20441;-53
2022/07/28 08:31:04;;;;;;;9.43;2.37;;;27.80;63.60;;;;;;5033020;28;20477;-58
2022/07/28 08:33:31;;;;;;;3.40;1.80;;;28.10;63.70;;;;;;5032549;28;20454;-55
2022/07/28 08:35:58;;;;;;;4.33;1.60;;;28.50;62.00;;;;;;5032865;28;20529;-56
2022/07/28 08:38:26;;;;;;;6.13;1.70;;;29.00;61.50;;;;;;5032774;28;20464;-56
2022/07/28 08:40:56;;;;;;;4.50;1.87;;;29.30;59.00;;;;;;5033044;28;20496;-55
2022/07/28 08:43:30;;;;;;;4.33;2.00;;;29.50;57.00;;;;;;5033164;28;20501;-55
2022/07/28 08:45:59;;;;;;;3.97;2.53;;;29.20;56.20;;;;;;5033039;28;20475;-56
2022/07/28 08:48:31;;;;;;;4.40;2.03;;;28.70;56.50;;;;;;5032868;28;20414;-55
2022/07/28 08:51:02;;;;;;;4.80;2.00;;;28.30;57.40;;;;;;5032950;28;20474;-52
2022/07/28 08:53:32;;;;;;;2.40;1.57;;;28.00;58.50;;;;;;5032611;28;20426;-53
2022/07/28 08:56:03;;;;;;;7.60;2.30;;;27.70;59.00;;;;;;5032866;28;20842;-54
2022/07/28 08:58:32;;;;;;;2.63;1.60;;;27.50;59.50;;;;;;5032935;28;20455;-56
2022/07/28 09:01:00;;;;;;;6.70;2.97;;;27.50;59.80;;;;;;5032144;28;20461;-57
2022/07/28 09:03:29;;;;;;;3.97;2.20;;;27.50;60.20;;;;;;5032358;28;20440;-52
2022/07/28 09:05:57;;;;;;;3.97;1.83;;;27.30;60.40;;;;;;5033141;28;20459;-57
2022/07/28 09:08:24;;;;;;;4.50;2.13;;;27.30;60.90;;;;;;5032860;28;20457;-53
2022/07/28 09:10:52;;;;;;;3.10;2.10;;;27.50;60.70;;;;;;5032253;28;20441;-57
2022/07/28 09:13:20;;;;;;;5.87;2.53;;;27.80;58.90;;;;;;5032606;28;20476;-57
2022/07/28 09:15:47;;;;;;;5.57;1.40;;;27.80;59.50;;;;;;5031999;28;20480;-55
2022/07/28 09:18:15;;;;;;;4.10;1.70;;;28.40;58.10;;;;;;5032711;28;20441;-58
2022/07/28 09:20:44;;;;;;;4.47;1.77;;;29.10;56.90;;;;;;5032426;28;20451;-57
2022/07/28 09:23:12;;;;;;;6.70;1.80;;;29.40;56.10;;;;;;5032078;28;20441;-55
2022/07/28 09:25:39;;;;;;;1.67;1.40;;;29.20;54.80;;;;;;5032122;28;20457;-56
2022/07/28 09:28:08;;;;;;;7.43;2.57;;;29.10;55.60;;;;;;5023181;28;20809;-58
2022/07/28 09:30:36;;;;;;;2.30;1.80;;;28.70;56.70;;;;;;5031435;28;20543;-54
2022/07/28 09:33:28;;;;;;;2.80;1.63;;;28.50;54.90;;;;;;5035595;28;20490;-55
2022/07/28 09:35:58;;;;;;;3.97;1.93;;;28.60;55.60;;;;;;5021478;28;20449;-56
2022/07/28 09:38:26;;;;;;;4.60;1.80;;;29.10;55.60;;;;;;5036211;28;20438;-56
2022/07/28 09:40:58;;;;;;;3.53;1.47;;;29.40;55.30;;;;;;5034985;28;20441;-59
2022/07/28 09:43:35;;;;;;;3.70;1.87;;;29.50;53.50;;;;;;5020241;28;20441;-58
2022/07/28 09:46:07;;;;;;;3.53;1.90;;;29.30;54.80;;;;;;5035768;28;20445;-57
2022/07/28 09:48:34;;;;;;;3.97;1.60;;;29.20;54.90;;;;;;5034794;28;20480;-57
2022/07/28 09:51:13;;;;;;;3.37;1.97;;;29.00;55.30;;;;;;5035669;28;20433;-56
2022/07/28 09:53:40;;;;;;;6.47;1.60;;;28.80;54.10;;;;;;5034732;28;20455;-52
2022/07/28 09:56:07;;;;;;;5.70;1.77;;;28.90;54.30;;;;;;5035594;28;20550;-55
2022/07/28 09:58:35;;;;;;;9.70;2.20;;;29.20;54.00;;;;;;5035328;28;20437;-56
2022/07/28 10:01:06;;;;;;;4.20;1.93;;;28.90;53.70;;;;;;5034946;28;20445;-59
2022/07/28 10:03:34;;;;;;;4.50;1.90;;;29.00;53.70;;;;;;5035613;28;20477;-54
2022/07/28 10:06:03;;;;;;;3.30;2.17;;;29.30;53.60;;;;;;5035078;28;20455;-58
2022/07/28 10:08:47;;;;;;;3.70;2.07;;;29.60;54.10;;;;;;5034486;28;20588;-57
2022/07/28 10:11:15;;;;;;;3.53;1.80;;;29.90;54.00;;;;;;5034806;28;20445;-57
2022/07/28 10:13:53;;;;;;;3.40;2.10;;;29.80;52.80;;;;;;5035173;28;20476;-53
2022/07/28 10:16:20;;;;;;;1.90;1.63;;;29.70;52.60;;;;;;5023494;28;20440;-58
2022/07/28 10:18:47;;;;;;;7.77;1.90;;;29.30;52.50;;;;;;5030787;28;20453;-55
2022/07/28 10:21:17;;;;;;;5.27;1.77;;;28.40;53.30;;;;;;5035069;28;20444;-55
2022/07/28 10:23:49;;;;;;;4.37;2.27;;;27.50;55.40;;;;;;5034403;28;20476;-58
2022/07/28 10:26:17;;;;;;;3.60;1.97;;;26.60;56.70;;;;;;5035050;28;20409;-57
2022/07/28 10:28:48;;;;;;;4.67;1.80;;;26.60;56.20;;;;;;5034311;28;20512;-59
2022/07/28 10:31:23;;;;;;;1.97;1.63;;;27.20;56.00;;;;;;5035142;28;20458;-58
2022/07/28 10:33:53;;;;;;;4.50;1.70;;;27.70;54.80;;;;;;5034355;28;20490;-58
2022/07/28 10:36:24;;;;;;;3.77;1.80;;;27.70;55.60;;;;;;5034626;28;20468;-55
2022/07/28 10:39:04;;;;;;;5.33;2.00;;;27.20;55.70;;;;;;5033926;28;20495;-52
2022/07/28 10:41:39;;;;;;;4.23;2.20;;;26.80;55.80;;;;;;5045366;23;20492;-44
2022/07/28 10:44:07;;;;;;;3.93;1.53;;;26.30;56.80;;;;;;5034685;28;20467;-49
2022/07/28 10:46:34;;;;;;;2.80;1.90;;;25.90;57.70;;;;;;5034261;28;20437;-46
2022/07/28 10:49:01;;;;;;;5.27;1.90;;;25.80;59.30;;;;;;5034345;28;20498;-48
2022/07/28 10:51:29;;;;;;;3.90;1.80;;;26.10;58.40;;;;;;5034410;28;20544;-47
2022/07/28 10:54:04;;;;;;;3.00;1.70;;;26.20;57.90;;;;;;5020149;28;21288;-50
2022/07/28 10:56:45;;;;;;;3.23;1.83;;;25.90;57.70;;;;;;5031888;28;20504;-47
2022/07/28 10:59:35;;;;;;;2.10;1.53;;;25.10;58.90;;;;;;5034842;28;20523;-47
2022/07/28 11:02:07;;;;;;;3.73;1.87;;;24.80;60.00;;;;;;5033181;28;20445;-47
2022/07/28 11:04:57;;;;;;;4.70;2.33;;;25.00;61.00;;;;;;5019678;28;20473;-49
2022/07/28 11:07:38;;;;;;;7.07;1.87;;;25.30;59.50;;;;;;5031347;28;20465;-49
2022/07/28 11:10:17;;;;;;;2.27;1.93;;;25.70;59.00;;;;;;5017456;28;20429;-54
2022/07/28 11:12:49;;;;;;;6.93;1.80;;;26.00;57.60;;;;;;5033980;28;20493;-45
2022/07/28 11:15:30;;;;;;;2.90;1.50;;;25.90;57.20;;;;;;5033727;28;20449;-46
2022/07/28 11:17:58;;;;;;;2.30;1.67;;;25.70;58.80;;;;;;5032699;28;20946;-41
2022/07/28 11:20:59;;;;;;;4.57;1.80;;;25.90;58.20;;;;;;5032703;28;20429;-45
2022/07/28 11:23:45;;;;;;;5.10;2.00;;;26.00;57.60;;;;;;5034854;28;20472;-47
2022/07/28 11:26:37;;;;;;;3.03;1.83;;;26.30;57.50;;;;;;5034364;28;20466;-48
2022/07/28 11:29:17;;;;;;;6.50;2.23;;;26.40;56.90;;;;;;5033073;28;20497;-50
2022/07/28 11:32:09;;;;;;;2.00;1.80;;;26.60;55.80;;;;;;5034415;28;20453;-54
2022/07/28 11:35:05;;;;;;;3.30;2.43;;;26.50;56.20;;;;;;5034560;28;20498;-52
2022/07/28 11:37:31;;;;;;;4.70;1.63;;;26.10;57.00;;;;;;5034177;28;20438;-48
2022/07/28 11:40:32;;;;;;;2.60;1.63;;;25.90;56.20;;;;;;5034415;28;20460;-47
2022/07/28 11:43:31;;;;;;;2.90;1.57;;;26.00;56.60;;;;;;5034360;28;20504;-44
2022/07/28 11:46:22;;;;;;;3.90;1.87;;;26.10;56.80;;;;;;5018042;28;20524;-51
2022/07/28 11:49:27;;;;;;;4.47;1.90;;;26.30;58.00;;;;;;5018911;28;20497;-50
2022/07/28 11:52:20;;;;;;;3.20;2.00;;;26.40;57.50;;;;;;5032482;28;20461;-55
2022/07/28 11:54:56;;;;;;;2.10;1.70;;;26.50;58.00;;;;;;5033911;28;20464;-47
2022/07/28 11:57:26;;;;;;;3.63;2.13;;;26.40;57.10;;;;;;5033954;28;20438;-48
2022/07/28 12:00:03;;;;;;;3.33;1.47;;;26.50;58.30;;;;;;5031751;28;20473;-46
2022/07/28 12:02:40;;;;;;;3.00;2.00;;;26.40;57.50;;;;;;5034070;28;20480;-45
2022/07/28 12:05:12;;;;;;;4.53;2.00;;;26.30;57.40;;;;;;5032015;28;20505;-48
2022/07/28 12:07:45;;;;;;;2.93;1.73;;;26.40;57.60;;;;;;5032917;28;20474;-52
2022/07/28 12:10:31;;;;;;;4.20;1.87;;;26.20;57.60;;;;;;5033980;28;20616;-50
2022/07/28 12:13:01;;;;;;;3.07;2.07;;;25.90;57.70;;;;;;5033496;28;20433;-52
2022/07/28 12:15:28;;;;;;;3.83;1.93;;;25.60;58.50;;;;;;5033047;28;20523;-46
2022/07/28 12:17:57;;;;;;;5.50;2.20;;;25.60;58.40;;;;;;5033759;28;20429;-47
2022/07/28 12:20:30;;;;;;;7.60;3.90;;;25.70;58.10;;;;;;5033185;28;20449;-48
2022/07/28 12:23:00;;;;;;;3.50;1.77;;;25.80;58.30;;;;;;5033773;28;20429;-47
2022/07/28 12:25:27;;;;;;;4.13;2.30;;;25.80;58.40;;;;;;5022634;28;20541;-50
2022/07/28 12:27:54;;;;;;;3.60;2.53;;;26.00;58.50;;;;;;5026677;28;20454;-46
2022/07/28 12:30:25;;;;;;;4.30;1.87;;;26.20;58.70;;;;;;5032378;28;20449;-47
2022/07/28 12:32:53;;;;;;;3.70;2.30;;;26.30;57.00;;;;;;5032988;28;20463;-46
2022/07/28 12:35:28;;;;;;;3.90;1.73;;;26.30;58.60;;;;;;5032792;28;20542;-50
2022/07/28 12:38:00;;;;;;;3.67;2.27;;;26.30;58.00;;;;;;5032680;28;20416;-51
2022/07/28 12:40:34;;;;;;;3.33;2.10;;;26.50;57.70;;;;;;5033010;28;20571;-53
2022/07/28 12:43:01;;;;;;;3.50;2.03;;;26.60;57.40;;;;;;5033677;28;20426;-49
2022/07/28 12:45:32;;;;;;;4.53;2.00;;;26.70;57.50;;;;;;5032348;28;20465;-49
2022/07/28 12:48:06;;;;;;;3.67;2.17;;;26.80;57.50;;;;;;5032974;28;20572;-49
2022/07/28 12:50:38;;;;;;;2.13;1.93;;;26.90;55.80;;;;;;5031924;28;20469;-46
2022/07/28 12:53:07;;;;;;;5.17;2.20;;;26.80;56.40;;;;;;5032646;28;20488;-53
2022/07/28 12:55:34;;;;;;;3.80;2.10;;;26.50;55.30;;;;;;5032340;28;20466;-49
2022/07/28 12:58:05;;;;;;;2.07;1.50;;;26.20;56.00;;;;;;5033142;28;20445;-48
2022/07/28 13:00:35;;;;;;;3.20;1.70;;;26.00;57.30;;;;;;5032375;28;20492;-50
2022/07/28 13:03:20;;;;;;;2.50;1.43;;;25.80;57.50;;;;;;5030609;28;20426;-51
2022/07/28 13:06:02;;;;;;;2.20;1.77;;;25.50;58.30;;;;;;5030659;28;20495;-49